sensor_id;sensor_type;location;lat;lon;timestamp;P1;durP1;ratioP1;P2;durP2;ratioP2
33403;SDS011;19751;40.274;18.268;2022-09-19T00:01:07;4.00;;;1.15;;
33403;SDS011;19751;40.274;18.268;2022-09-19T00:03:41;4.80;;;1.40;;
33403;SDS011;19751;40.274;18.268;2022-09-19T00:06:08;4.22;;;1.33;;
33403;SDS011;19751;40.274;18.268;2022-09-19T00:08:37;3.92;;;0.88;;
33403;SDS011;19751;40.274;18.268;2022-09-19T00:11:04;3.45;;;1.15;;
33403;SDS011;19751;40.274;18.268;2022-09-19T00:13:35;2.25;;;1.05;;
33403;SDS011;19751;40.274;18.268;2022-09-19T00:16:03;3.38;;;1.08;;
33403;SDS011;19751;40.274;18.268;2022-09-19T00:18:29;1.20;;;0.88;;
33403;SDS011;19751;40.274;18.268;2022-09-19T00:20:55;5.63;;;1.20;;
33403;SDS011;19751;40.274;18.268;2022-09-19T00:23:20;4.43;;;1.65;;
33403;SDS011;19751;40.274;18.268;2022-09-19T00:26:06;2.90;;;1.23;;
33403;SDS011;19751;40.274;18.268;2022-09-19T00:28:34;3.13;;;1.15;;
33403;SDS011;19751;40.274;18.268;2022-09-19T00:31:00;3.78;;;1.33;;
33403;SDS011;19751;40.274;18.268;2022-09-19T00:33:28;4.28;;;1.40;;
33403;SDS011;19751;40.274;18.268;2022-09-19T00:35:59;2.22;;;0.93;;
33403;SDS011;19751;40.274;18.268;2022-09-19T00:38:29;3.80;;;1.00;;
33403;SDS011;19751;40.274;18.268;2022-09-19T00:40:58;5.90;;;1.15;;
33403;SDS011;19751;40.274;18.268;2022-09-19T00:43:24;3.42;;;1.55;;
33403;SDS011;19751;40.274;18.268;2022-09-19T00:46:07;3.92;;;1.00;;
33403;SDS011;19751;40.274;18.268;2022-09-19T00:48:33;2.70;;;1.27;;
33403;SDS011;19751;40.274;18.268;2022-09-19T00:50:59;4.43;;;1.27;;
33403;SDS011;19751;40.274;18.268;2022-09-19T00:53:26;6.65;;;1.00;;
33403;SDS011;19751;40.274;18.268;2022-09-19T00:55:55;3.00;;;1.08;;
33403;SDS011;19751;40.274;18.268;2022-09-19T01:01:00;3.25;;;1.10;;
33403;SDS011;19751;40.274;18.268;2022-09-19T01:03:27;2.80;;;1.00;;
33403;SDS011;19751;40.274;18.268;2022-09-19T01:08:31;1.95;;;1.05;;
33403;SDS011;19751;40.274;18.268;2022-09-19T01:17:20;3.40;;;0.90;;
33403;SDS011;19751;40.274;18.268;2022-09-19T01:28:04;2.30;;;0.98;;
33403;SDS011;19751;40.274;18.268;2022-09-19T01:30:48;1.05;;;0.60;;
33403;SDS011;19751;40.274;18.268;2022-09-19T01:33:39;1.67;;;0.70;;
33403;SDS011;19751;40.274;18.268;2022-09-19T01:36:07;1.42;;;0.82;;
33403;SDS011;19751;40.274;18.268;2022-09-19T01:38:39;0.93;;;0.70;;
33403;SDS011;19751;40.274;18.268;2022-09-19T01:41:09;1.35;;;0.55;;
33403;SDS011;19751;40.274;18.268;2022-09-19T01:43:35;5.95;;;0.75;;
33403;SDS011;19751;40.274;18.268;2022-09-19T01:46:12;1.23;;;0.63;;
33403;SDS011;19751;40.274;18.268;2022-09-19T01:51:42;1.92;;;0.60;;
33403;SDS011;19751;40.274;18.268;2022-09-19T01:54:19;3.65;;;0.52;;
33403;SDS011;19751;40.274;18.268;2022-09-19T01:59:40;3.80;;;1.00;;
33403;SDS011;19751;40.274;18.268;2022-09-19T02:04:52;6.63;;;1.05;;
33403;SDS011;19751;40.274;18.268;2022-09-19T02:07:42;2.03;;;0.80;;
33403;SDS011;19751;40.274;18.268;2022-09-19T02:10:34;3.28;;;0.82;;
33403;SDS011;19751;40.274;18.268;2022-09-19T02:13:05;3.83;;;1.00;;
33403;SDS011;19751;40.274;18.268;2022-09-19T02:15:34;2.55;;;0.65;;
33403;SDS011;19751;40.274;18.268;2022-09-19T02:18:09;4.00;;;0.90;;
33403;SDS011;19751;40.274;18.268;2022-09-19T02:20:53;4.07;;;0.77;;
33403;SDS011;19751;40.274;18.268;2022-09-19T02:23:24;1.52;;;0.75;;
33403;SDS011;19751;40.274;18.268;2022-09-19T02:25:54;1.92;;;0.60;;
33403;SDS011;19751;40.274;18.268;2022-09-19T02:28:25;2.33;;;0.88;;
33403;SDS011;19751;40.274;18.268;2022-09-19T02:30:56;2.03;;;0.80;;
33403;SDS011;19751;40.274;18.268;2022-09-19T02:33:23;3.25;;;1.00;;
33403;SDS011;19751;40.274;18.268;2022-09-19T02:35:55;4.53;;;1.23;;
33403;SDS011;19751;40.274;18.268;2022-09-19T02:38:36;1.52;;;0.70;;
33403;SDS011;19751;40.274;18.268;2022-09-19T02:41:18;2.42;;;0.80;;
33403;SDS011;19751;40.274;18.268;2022-09-19T02:49:52;1.10;;;0.70;;
33403;SDS011;19751;40.274;18.268;2022-09-19T02:52:33;1.80;;;0.70;;
33403;SDS011;19751;40.274;18.268;2022-09-19T02:55:13;4.90;;;1.20;;
33403;SDS011;19751;40.274;18.268;2022-09-19T02:57:45;1.55;;;0.90;;
33403;SDS011;19751;40.274;18.268;2022-09-19T03:00:14;3.30;;;0.63;;
33403;SDS011;19751;40.274;18.268;2022-09-19T03:02:45;3.50;;;0.80;;
33403;SDS011;19751;40.274;18.268;2022-09-19T03:05:24;3.80;;;0.80;;
33403;SDS011;19751;40.274;18.268;2022-09-19T03:10:41;4.15;;;1.67;;
33403;SDS011;19751;40.274;18.268;2022-09-19T03:13:11;2.42;;;1.00;;
33403;SDS011;19751;40.274;18.268;2022-09-19T03:15:48;2.05;;;0.40;;
33403;SDS011;19751;40.274;18.268;2022-09-19T03:18:23;0.60;;;0.52;;
33403;SDS011;19751;40.274;18.268;2022-09-19T03:20:53;1.02;;;0.43;;
33403;SDS011;19751;40.274;18.268;2022-09-19T03:23:25;1.98;;;0.50;;
33403;SDS011;19751;40.274;18.268;2022-09-19T03:26:05;1.92;;;0.50;;
33403;SDS011;19751;40.274;18.268;2022-09-19T03:28:34;1.50;;;0.52;;
33403;SDS011;19751;40.274;18.268;2022-09-19T03:30:59;0.75;;;0.40;;
33403;SDS011;19751;40.274;18.268;2022-09-19T03:33:26;0.70;;;0.35;;
33403;SDS011;19751;40.274;18.268;2022-09-19T03:35:53;1.38;;;0.40;;
33403;SDS011;19751;40.274;18.268;2022-09-19T03:38:21;0.82;;;0.40;;
33403;SDS011;19751;40.274;18.268;2022-09-19T03:40:48;1.33;;;0.55;;
33403;SDS011;19751;40.274;18.268;2022-09-19T03:43:13;2.25;;;0.88;;
33403;SDS011;19751;40.274;18.268;2022-09-19T03:45:39;0.93;;;0.45;;
33403;SDS011;19751;40.274;18.268;2022-09-19T03:48:05;2.75;;;0.77;;
33403;SDS011;19751;40.274;18.268;2022-09-19T03:50:30;2.05;;;0.50;;
33403;SDS011;19751;40.274;18.268;2022-09-19T03:52:58;1.75;;;0.30;;
33403;SDS011;19751;40.274;18.268;2022-09-19T03:55:24;2.08;;;0.47;;
33403;SDS011;19751;40.274;18.268;2022-09-19T03:57:50;3.70;;;0.40;;
33403;SDS011;19751;40.274;18.268;2022-09-19T04:00:16;0.70;;;0.35;;
33403;SDS011;19751;40.274;18.268;2022-09-19T04:02:41;0.60;;;0.60;;
33403;SDS011;19751;40.274;18.268;2022-09-19T04:05:08;2.88;;;0.40;;
33403;SDS011;19751;40.274;18.268;2022-09-19T04:07:34;0.30;;;0.30;;
33403;SDS011;19751;40.274;18.268;2022-09-19T04:10:03;2.83;;;0.30;;
33403;SDS011;19751;40.274;18.268;2022-09-19T04:12:31;2.92;;;0.60;;
33403;SDS011;19751;40.274;18.268;2022-09-19T04:14:58;1.58;;;0.35;;
33403;SDS011;19751;40.274;18.268;2022-09-19T04:17:25;1.23;;;0.40;;
33403;SDS011;19751;40.274;18.268;2022-09-19T04:19:53;3.08;;;0.43;;
33403;SDS011;19751;40.274;18.268;2022-09-19T04:22:19;1.17;;;0.40;;
33403;SDS011;19751;40.274;18.268;2022-09-19T04:24:47;1.08;;;0.45;;
33403;SDS011;19751;40.274;18.268;2022-09-19T04:27:13;0.85;;;0.45;;
33403;SDS011;19751;40.274;18.268;2022-09-19T04:29:39;0.98;;;0.47;;
33403;SDS011;19751;40.274;18.268;2022-09-19T04:32:06;0.57;;;0.50;;
33403;SDS011;19751;40.274;18.268;2022-09-19T04:34:32;5.03;;;0.40;;
33403;SDS011;19751;40.274;18.268;2022-09-19T04:36:58;1.20;;;0.70;;
33403;SDS011;19751;40.274;18.268;2022-09-19T04:39:27;1.83;;;0.77;;
33403;SDS011;19751;40.274;18.268;2022-09-19T04:41:55;1.30;;;0.60;;
33403;SDS011;19751;40.274;18.268;2022-09-19T04:44:21;1.00;;;0.65;;
33403;SDS011;19751;40.274;18.268;2022-09-19T04:46:47;2.47;;;0.60;;
33403;SDS011;19751;40.274;18.268;2022-09-19T04:49:16;3.15;;;0.82;;
33403;SDS011;19751;40.274;18.268;2022-09-19T04:51:42;2.53;;;0.40;;
33403;SDS011;19751;40.274;18.268;2022-09-19T04:54:08;3.90;;;0.70;;
33403;SDS011;19751;40.274;18.268;2022-09-19T04:56:34;2.28;;;0.50;;
33403;SDS011;19751;40.274;18.268;2022-09-19T04:59:00;1.77;;;0.68;;
33403;SDS011;19751;40.274;18.268;2022-09-19T05:01:26;0.47;;;0.30;;
33403;SDS011;19751;40.274;18.268;2022-09-19T05:03:51;0.93;;;0.50;;
33403;SDS011;19751;40.274;18.268;2022-09-19T05:06:17;0.70;;;0.50;;
33403;SDS011;19751;40.274;18.268;2022-09-19T05:08:43;1.20;;;0.68;;
33403;SDS011;19751;40.274;18.268;2022-09-19T05:11:09;3.05;;;2.75;;
33403;SDS011;19751;40.274;18.268;2022-09-19T05:13:35;4.72;;;1.35;;
33403;SDS011;19751;40.274;18.268;2022-09-19T05:16:03;2.70;;;1.60;;
33403;SDS011;19751;40.274;18.268;2022-09-19T05:18:30;6.28;;;0.80;;
33403;SDS011;19751;40.274;18.268;2022-09-19T05:21:02;3.08;;;0.80;;
33403;SDS011;19751;40.274;18.268;2022-09-19T05:23:32;1.58;;;1.15;;
33403;SDS011;19751;40.274;18.268;2022-09-19T05:26:04;1.92;;;1.08;;
33403;SDS011;19751;40.274;18.268;2022-09-19T05:28:32;1.73;;;0.90;;
33403;SDS011;19751;40.274;18.268;2022-09-19T05:30:58;2.92;;;1.10;;
33403;SDS011;19751;40.274;18.268;2022-09-19T05:33:29;8.02;;;1.35;;
33403;SDS011;19751;40.274;18.268;2022-09-19T05:35:57;5.70;;;1.58;;
33403;SDS011;19751;40.274;18.268;2022-09-19T05:38:25;4.80;;;0.93;;
33403;SDS011;19751;40.274;18.268;2022-09-19T05:40:52;6.50;;;0.60;;
33403;SDS011;19751;40.274;18.268;2022-09-19T05:43:19;1.40;;;0.40;;
33403;SDS011;19751;40.274;18.268;2022-09-19T05:45:45;1.58;;;0.50;;
33403;SDS011;19751;40.274;18.268;2022-09-19T05:48:12;0.93;;;0.52;;
33403;SDS011;19751;40.274;18.268;2022-09-19T05:50:41;3.38;;;0.65;;
33403;SDS011;19751;40.274;18.268;2022-09-19T05:53:09;74.65;;;6.93;;
33403;SDS011;19751;40.274;18.268;2022-09-19T05:55:54;14.35;;;2.13;;
33403;SDS011;19751;40.274;18.268;2022-09-19T05:58:20;8.73;;;1.17;;
33403;SDS011;19751;40.274;18.268;2022-09-19T06:00:46;7.72;;;1.58;;
33403;SDS011;19751;40.274;18.268;2022-09-19T06:03:12;86.57;;;13.95;;
33403;SDS011;19751;40.274;18.268;2022-09-19T06:05:46;24.38;;;5.22;;
33403;SDS011;19751;40.274;18.268;2022-09-19T06:08:17;9.30;;;1.25;;
33403;SDS011;19751;40.274;18.268;2022-09-19T06:10:44;3.85;;;1.75;;
33403;SDS011;19751;40.274;18.268;2022-09-19T06:13:12;3.28;;;1.30;;
33403;SDS011;19751;40.274;18.268;2022-09-19T06:15:39;5.90;;;1.40;;
33403;SDS011;19751;40.274;18.268;2022-09-19T06:18:05;5.55;;;1.17;;
33403;SDS011;19751;40.274;18.268;2022-09-19T06:20:31;8.43;;;0.75;;
33403;SDS011;19751;40.274;18.268;2022-09-19T06:23:01;3.13;;;0.90;;
33403;SDS011;19751;40.274;18.268;2022-09-19T06:25:28;4.65;;;0.70;;
33403;SDS011;19751;40.274;18.268;2022-09-19T06:27:54;49.72;;;5.03;;
33403;SDS011;19751;40.274;18.268;2022-09-19T06:30:21;13.35;;;1.80;;
33403;SDS011;19751;40.274;18.268;2022-09-19T06:32:48;5.95;;;1.50;;
33403;SDS011;19751;40.274;18.268;2022-09-19T06:35:14;13.05;;;4.32;;
33403;SDS011;19751;40.274;18.268;2022-09-19T06:37:39;17.60;;;7.32;;
33403;SDS011;19751;40.274;18.268;2022-09-19T06:40:06;19.85;;;8.77;;
33403;SDS011;19751;40.274;18.268;2022-09-19T06:42:32;12.50;;;5.15;;
33403;SDS011;19751;40.274;18.268;2022-09-19T06:44:57;15.35;;;5.43;;
33403;SDS011;19751;40.274;18.268;2022-09-19T06:47:24;6.80;;;2.95;;
33403;SDS011;19751;40.274;18.268;2022-09-19T06:49:49;4.05;;;2.03;;
33403;SDS011;19751;40.274;18.268;2022-09-19T06:52:15;4.25;;;1.73;;
33403;SDS011;19751;40.274;18.268;2022-09-19T06:54:40;3.13;;;0.85;;
33403;SDS011;19751;40.274;18.268;2022-09-19T06:57:06;3.28;;;0.80;;
33403;SDS011;19751;40.274;18.268;2022-09-19T06:59:32;2.08;;;0.50;;
33403;SDS011;19751;40.274;18.268;2022-09-19T07:01:57;1.30;;;0.77;;
33403;SDS011;19751;40.274;18.268;2022-09-19T07:04:23;4.10;;;1.35;;
33403;SDS011;19751;40.274;18.268;2022-09-19T07:06:49;1.73;;;0.60;;
33403;SDS011;19751;40.274;18.268;2022-09-19T07:09:15;4.95;;;0.55;;
33403;SDS011;19751;40.274;18.268;2022-09-19T07:11:40;2.80;;;0.55;;
33403;SDS011;19751;40.274;18.268;2022-09-19T07:14:06;2.42;;;0.77;;
33403;SDS011;19751;40.274;18.268;2022-09-19T07:16:31;2.00;;;1.42;;
33403;SDS011;19751;40.274;18.268;2022-09-19T07:18:57;3.53;;;1.85;;
33403;SDS011;19751;40.274;18.268;2022-09-19T07:21:23;5.20;;;1.17;;
33403;SDS011;19751;40.274;18.268;2022-09-19T07:23:48;2.42;;;1.65;;
33403;SDS011;19751;40.274;18.268;2022-09-19T07:26:14;2.40;;;1.02;;
33403;SDS011;19751;40.274;18.268;2022-09-19T07:28:40;1.00;;;0.40;;
33403;SDS011;19751;40.274;18.268;2022-09-19T07:31:06;0.90;;;0.38;;
33403;SDS011;19751;40.274;18.268;2022-09-19T07:33:32;3.08;;;0.47;;
33403;SDS011;19751;40.274;18.268;2022-09-19T07:35:58;5.85;;;0.40;;
33403;SDS011;19751;40.274;18.268;2022-09-19T07:38:25;5.20;;;0.40;;
33403;SDS011;19751;40.274;18.268;2022-09-19T07:40:52;0.38;;;0.20;;
33403;SDS011;19751;40.274;18.268;2022-09-19T07:43:19;0.30;;;0.20;;
33403;SDS011;19751;40.274;18.268;2022-09-19T07:45:48;1.23;;;0.43;;
33403;SDS011;19751;40.274;18.268;2022-09-19T07:48:15;1.17;;;0.60;;
33403;SDS011;19751;40.274;18.268;2022-09-19T07:50:43;0.63;;;0.30;;
33403;SDS011;19751;40.274;18.268;2022-09-19T07:53:09;3.10;;;0.75;;
33403;SDS011;19751;40.274;18.268;2022-09-19T07:55:37;0.57;;;0.30;;
33403;SDS011;19751;40.274;18.268;2022-09-19T07:58:03;0.60;;;0.25;;
33403;SDS011;19751;40.274;18.268;2022-09-19T08:00:30;1.17;;;0.40;;
33403;SDS011;19751;40.274;18.268;2022-09-19T08:02:59;2.60;;;0.98;;
33403;SDS011;19751;40.274;18.268;2022-09-19T08:05:26;4.80;;;2.10;;
33403;SDS011;19751;40.274;18.268;2022-09-19T08:07:55;3.20;;;1.38;;
33403;SDS011;19751;40.274;18.268;2022-09-19T08:10:20;1.48;;;0.90;;
33403;SDS011;19751;40.274;18.268;2022-09-19T08:12:47;4.20;;;0.90;;
33403;SDS011;19751;40.274;18.268;2022-09-19T08:15:13;2.45;;;1.05;;
33403;SDS011;19751;40.274;18.268;2022-09-19T08:17:53;2.35;;;0.88;;
33403;SDS011;19751;40.274;18.268;2022-09-19T08:20:34;5.15;;;1.42;;
33403;SDS011;19751;40.274;18.268;2022-09-19T08:23:08;3.38;;;1.00;;
33403;SDS011;19751;40.274;18.268;2022-09-19T08:25:37;1.67;;;0.70;;
33403;SDS011;19751;40.274;18.268;2022-09-19T08:28:05;1.98;;;0.80;;
33403;SDS011;19751;40.274;18.268;2022-09-19T08:30:31;2.15;;;0.50;;
33403;SDS011;19751;40.274;18.268;2022-09-19T08:32:58;1.65;;;0.40;;
33403;SDS011;19751;40.274;18.268;2022-09-19T08:35:25;1.70;;;0.50;;
33403;SDS011;19751;40.274;18.268;2022-09-19T08:37:56;5.50;;;1.02;;
33403;SDS011;19751;40.274;18.268;2022-09-19T08:40:25;1.85;;;0.85;;
33403;SDS011;19751;40.274;18.268;2022-09-19T08:54:24;6.65;;;1.00;;
33403;SDS011;19751;40.274;18.268;2022-09-19T08:56:52;3.45;;;0.73;;
33403;SDS011;19751;40.274;18.268;2022-09-19T08:59:22;5.95;;;0.73;;
33403;SDS011;19751;40.274;18.268;2022-09-19T09:01:50;3.10;;;1.10;;
33403;SDS011;19751;40.274;18.268;2022-09-19T09:09:48;3.60;;;0.77;;
33403;SDS011;19751;40.274;18.268;2022-09-19T09:12:29;3.40;;;0.85;;
33403;SDS011;19751;40.274;18.268;2022-09-19T09:17:49;2.85;;;0.90;;
33403;SDS011;19751;40.274;18.268;2022-09-19T09:23:17;4.50;;;1.00;;
33403;SDS011;19751;40.274;18.268;2022-09-19T09:25:48;2.72;;;1.08;;
33403;SDS011;19751;40.274;18.268;2022-09-19T09:29:01;5.95;;;1.13;;
33403;SDS011;19751;40.274;18.268;2022-09-19T09:31:25;2.42;;;1.10;;
33403;SDS011;19751;40.274;18.268;2022-09-19T09:34:02;2.92;;;1.00;;
33403;SDS011;19751;40.274;18.268;2022-09-19T09:36:39;5.80;;;1.70;;
33403;SDS011;19751;40.274;18.268;2022-09-19T09:39:31;3.22;;;1.52;;
33403;SDS011;19751;40.274;18.268;2022-09-19T09:42:15;4.68;;;1.27;;
33403;SDS011;19751;40.274;18.268;2022-09-19T09:45:05;3.22;;;1.65;;
33403;SDS011;19751;40.274;18.268;2022-09-19T09:48:05;3.47;;;1.52;;
33403;SDS011;19751;40.274;18.268;2022-09-19T09:53:32;4.88;;;1.63;;
33403;SDS011;19751;40.274;18.268;2022-09-19T10:01:57;2.20;;;1.05;;
33403;SDS011;19751;40.274;18.268;2022-09-19T10:04:46;3.25;;;2.33;;
33403;SDS011;19751;40.274;18.268;2022-09-19T10:07:24;3.77;;;0.97;;
33403;SDS011;19751;40.274;18.268;2022-09-19T10:10:36;3.58;;;1.25;;
33403;SDS011;19751;40.274;18.268;2022-09-19T10:12:46;3.13;;;1.35;;
33403;SDS011;19751;40.274;18.268;2022-09-19T10:15:21;3.92;;;1.45;;
33403;SDS011;19751;40.274;18.268;2022-09-19T10:17:51;2.97;;;1.23;;
33403;SDS011;19751;40.274;18.268;2022-09-19T10:20:51;3.15;;;1.30;;
33403;SDS011;19751;40.274;18.268;2022-09-19T10:23:26;3.83;;;1.77;;
33403;SDS011;19751;40.274;18.268;2022-09-19T10:25:59;4.43;;;1.60;;
33403;SDS011;19751;40.274;18.268;2022-09-19T10:28:31;3.50;;;0.95;;
33403;SDS011;19751;40.274;18.268;2022-09-19T10:33:56;2.97;;;0.90;;
33403;SDS011;19751;40.274;18.268;2022-09-19T10:36:23;1.75;;;1.27;;
33403;SDS011;19751;40.274;18.268;2022-09-19T10:38:57;4.85;;;1.10;;
33403;SDS011;19751;40.274;18.268;2022-09-19T10:41:25;2.05;;;0.90;;
33403;SDS011;19751;40.274;18.268;2022-09-19T10:43:57;2.30;;;0.70;;
33403;SDS011;19751;40.274;18.268;2022-09-19T10:49:03;2.40;;;1.02;;
33403;SDS011;19751;40.274;18.268;2022-09-19T10:51:36;1.15;;;0.75;;
33403;SDS011;19751;40.274;18.268;2022-09-19T10:54:12;2.17;;;0.40;;
33403;SDS011;19751;40.274;18.268;2022-09-19T10:59:51;1.58;;;0.85;;
33403;SDS011;19751;40.274;18.268;2022-09-19T11:02:24;5.78;;;0.80;;
33403;SDS011;19751;40.274;18.268;2022-09-19T11:04:51;4.53;;;0.97;;
33403;SDS011;19751;40.274;18.268;2022-09-19T11:07:25;3.15;;;0.82;;
33403;SDS011;19751;40.274;18.268;2022-09-19T11:09:54;1.33;;;0.80;;
33403;SDS011;19751;40.274;18.268;2022-09-19T11:12:24;2.25;;;0.73;;
33403;SDS011;19751;40.274;18.268;2022-09-19T11:14:52;1.85;;;0.90;;
33403;SDS011;19751;40.274;18.268;2022-09-19T11:28:47;1.15;;;0.70;;
33403;SDS011;19751;40.274;18.268;2022-09-19T11:31:32;1.55;;;0.93;;
33403;SDS011;19751;40.274;18.268;2022-09-19T11:37:04;1.17;;;0.57;;
33403;SDS011;19751;40.274;18.268;2022-09-19T11:39:47;3.08;;;0.80;;
33403;SDS011;19751;40.274;18.268;2022-09-19T11:42:46;3.63;;;1.27;;
33403;SDS011;19751;40.274;18.268;2022-09-19T11:45:22;1.35;;;0.80;;
33403;SDS011;19751;40.274;18.268;2022-09-19T11:48:41;3.72;;;0.50;;
33403;SDS011;19751;40.274;18.268;2022-09-19T11:50:47;2.00;;;0.52;;
33403;SDS011;19751;40.274;18.268;2022-09-19T11:59:18;1.55;;;0.57;;
33403;SDS011;19751;40.274;18.268;2022-09-19T12:10:55;2.25;;;0.73;;
33403;SDS011;19751;40.274;18.268;2022-09-19T12:13:48;1.40;;;0.80;;
33403;SDS011;19751;40.274;18.268;2022-09-19T12:16:20;2.67;;;0.73;;
33403;SDS011;19751;40.274;18.268;2022-09-19T12:18:54;2.20;;;0.70;;
33403;SDS011;19751;40.274;18.268;2022-09-19T12:21:24;2.50;;;0.60;;
33403;SDS011;19751;40.274;18.268;2022-09-19T12:24:06;0.90;;;0.50;;
33403;SDS011;19751;40.274;18.268;2022-09-19T12:27:13;1.97;;;0.83;;
33403;SDS011;19751;40.274;18.268;2022-09-19T12:29:46;2.83;;;0.73;;
33403;SDS011;19751;40.274;18.268;2022-09-19T12:35:27;1.27;;;0.65;;
33403;SDS011;19751;40.274;18.268;2022-09-19T12:38:02;1.95;;;0.60;;
33403;SDS011;19751;40.274;18.268;2022-09-19T12:51:55;2.72;;;1.27;;
33403;SDS011;19751;40.274;18.268;2022-09-19T12:59:48;2.70;;;1.00;;
33403;SDS011;19751;40.274;18.268;2022-09-19T13:02:32;1.70;;;1.15;;
33403;SDS011;19751;40.274;18.268;2022-09-19T13:08:31;3.28;;;0.82;;
33403;SDS011;19751;40.274;18.268;2022-09-19T13:10:44;2.25;;;0.60;;
33403;SDS011;19751;40.274;18.268;2022-09-19T13:15:57;1.17;;;0.68;;
33403;SDS011;19751;40.274;18.268;2022-09-19T13:18:27;1.13;;;0.45;;
33403;SDS011;19751;40.274;18.268;2022-09-19T13:21:27;0.60;;;0.40;;
33403;SDS011;19751;40.274;18.268;2022-09-19T13:24:22;1.85;;;0.95;;
33403;SDS011;19751;40.274;18.268;2022-09-19T13:26:53;2.60;;;0.85;;
33403;SDS011;19751;40.274;18.268;2022-09-19T13:42:37;2.47;;;0.90;;
33403;SDS011;19751;40.274;18.268;2022-09-19T13:50:55;2.25;;;1.13;;
33403;SDS011;19751;40.274;18.268;2022-09-19T13:53:29;3.35;;;1.02;;
33403;SDS011;19751;40.274;18.268;2022-09-19T14:01:59;2.15;;;1.00;;
33403;SDS011;19751;40.274;18.268;2022-09-19T14:04:46;2.20;;;0.80;;
33403;SDS011;19751;40.274;18.268;2022-09-19T14:07:18;2.10;;;1.02;;
33403;SDS011;19751;40.274;18.268;2022-09-19T14:09:59;2.45;;;0.90;;
33403;SDS011;19751;40.274;18.268;2022-09-19T14:15:00;2.28;;;0.77;;
33403;SDS011;19751;40.274;18.268;2022-09-19T14:17:27;1.52;;;0.82;;
33403;SDS011;19751;40.274;18.268;2022-09-19T14:19:57;2.90;;;1.05;;
33403;SDS011;19751;40.274;18.268;2022-09-19T14:33:21;1.63;;;0.70;;
33403;SDS011;19751;40.274;18.268;2022-09-19T14:36:19;6.90;;;2.20;;
33403;SDS011;19751;40.274;18.268;2022-09-19T14:47:05;1.58;;;1.00;;
33403;SDS011;19751;40.274;18.268;2022-09-19T14:49:39;2.35;;;1.33;;
33403;SDS011;19751;40.274;18.268;2022-09-19T14:54:54;1.10;;;0.70;;
33403;SDS011;19751;40.274;18.268;2022-09-19T14:57:25;2.10;;;1.00;;
33403;SDS011;19751;40.274;18.268;2022-09-19T14:59:51;2.17;;;0.90;;
33403;SDS011;19751;40.274;18.268;2022-09-19T15:02:21;1.00;;;0.90;;
33403;SDS011;19751;40.274;18.268;2022-09-19T15:05:00;2.20;;;1.03;;
33403;SDS011;19751;40.274;18.268;2022-09-19T15:07:28;21.83;;;11.80;;
33403;SDS011;19751;40.274;18.268;2022-09-19T15:09:56;11.38;;;7.05;;
33403;SDS011;19751;40.274;18.268;2022-09-19T15:12:44;6.32;;;3.63;;
33403;SDS011;19751;40.274;18.268;2022-09-19T15:15:12;3.97;;;2.17;;
33403;SDS011;19751;40.274;18.268;2022-09-19T15:17:40;1.17;;;1.00;;
33403;SDS011;19751;40.274;18.268;2022-09-19T15:27:33;1.80;;;0.80;;
33403;SDS011;19751;40.274;18.268;2022-09-19T15:30:18;1.33;;;1.05;;
33403;SDS011;19751;40.274;18.268;2022-09-19T15:33:28;1.75;;;0.90;;
33403;SDS011;19751;40.274;18.268;2022-09-19T15:35:42;3.17;;;1.00;;
33403;SDS011;19751;40.274;18.268;2022-09-19T15:38:12;2.90;;;1.20;;
33403;SDS011;19751;40.274;18.268;2022-09-19T15:40:44;2.30;;;0.95;;
33403;SDS011;19751;40.274;18.268;2022-09-19T15:43:11;1.42;;;0.95;;
33403;SDS011;19751;40.274;18.268;2022-09-19T15:45:40;5.00;;;1.20;;
33403;SDS011;19751;40.274;18.268;2022-09-19T15:48:22;2.30;;;1.40;;
33403;SDS011;19751;40.274;18.268;2022-09-19T15:50:59;3.25;;;1.45;;
33403;SDS011;19751;40.274;18.268;2022-09-19T15:56:07;9.00;;;5.95;;
33403;SDS011;19751;40.274;18.268;2022-09-19T15:58:37;10.70;;;6.50;;
33403;SDS011;19751;40.274;18.268;2022-09-19T16:03:45;16.83;;;9.15;;
33403;SDS011;19751;40.274;18.268;2022-09-19T16:07:10;18.75;;;9.07;;
33403;SDS011;19751;40.274;18.268;2022-09-19T16:09:48;21.27;;;11.55;;
33403;SDS011;19751;40.274;18.268;2022-09-19T16:12:44;21.83;;;12.40;;
33403;SDS011;19751;40.274;18.268;2022-09-19T16:23:01;4.00;;;1.60;;
33403;SDS011;19751;40.274;18.268;2022-09-19T16:25:38;4.93;;;1.60;;
33403;SDS011;19751;40.274;18.268;2022-09-19T16:28:26;5.80;;;2.10;;
33403;SDS011;19751;40.274;18.268;2022-09-19T16:30:57;3.10;;;2.20;;
33403;SDS011;19751;40.274;18.268;2022-09-19T16:33:40;9.30;;;2.17;;
33403;SDS011;19751;40.274;18.268;2022-09-19T16:36:11;5.07;;;1.90;;
33403;SDS011;19751;40.274;18.268;2022-09-19T16:38:40;4.75;;;1.95;;
33403;SDS011;19751;40.274;18.268;2022-09-19T16:41:35;2.70;;;1.63;;
33403;SDS011;19751;40.274;18.268;2022-09-19T16:47:10;3.63;;;1.67;;
33403;SDS011;19751;40.274;18.268;2022-09-19T16:49:43;3.28;;;1.77;;
33403;SDS011;19751;40.274;18.268;2022-09-19T16:55:03;3.15;;;1.85;;
33403;SDS011;19751;40.274;18.268;2022-09-19T16:57:30;5.45;;;1.67;;
33403;SDS011;19751;40.274;18.268;2022-09-19T16:59:56;14.05;;;1.83;;
33403;SDS011;19751;40.274;18.268;2022-09-19T17:02:24;5.25;;;2.17;;
33403;SDS011;19751;40.274;18.268;2022-09-19T17:05:30;2.80;;;1.77;;
33403;SDS011;19751;40.274;18.268;2022-09-19T17:07:52;5.07;;;2.00;;
33403;SDS011;19751;40.274;18.268;2022-09-19T17:10:20;3.40;;;1.90;;
33403;SDS011;19751;40.274;18.268;2022-09-19T17:12:47;4.50;;;2.17;;
33403;SDS011;19751;40.274;18.268;2022-09-19T17:18:18;7.13;;;3.75;;
33403;SDS011;19751;40.274;18.268;2022-09-19T17:20:44;13.32;;;5.97;;
33403;SDS011;19751;40.274;18.268;2022-09-19T17:23:14;11.48;;;3.88;;
33403;SDS011;19751;40.274;18.268;2022-09-19T17:25:42;6.95;;;2.75;;
33403;SDS011;19751;40.274;18.268;2022-09-19T17:28:13;3.08;;;2.15;;
33403;SDS011;19751;40.274;18.268;2022-09-19T17:30:42;7.47;;;2.42;;
33403;SDS011;19751;40.274;18.268;2022-09-19T17:33:10;3.42;;;2.20;;
33403;SDS011;19751;40.274;18.268;2022-09-19T17:35:37;5.50;;;2.20;;
33403;SDS011;19751;40.274;18.268;2022-09-19T17:38:02;4.60;;;2.53;;
33403;SDS011;19751;40.274;18.268;2022-09-19T17:40:28;2.65;;;2.10;;
33403;SDS011;19751;40.274;18.268;2022-09-19T17:42:59;4.32;;;1.90;;
33403;SDS011;19751;40.274;18.268;2022-09-19T17:45:26;5.47;;;1.92;;
33403;SDS011;19751;40.274;18.268;2022-09-19T17:47:57;4.88;;;2.13;;
33403;SDS011;19751;40.274;18.268;2022-09-19T17:50:27;3.03;;;2.22;;
33403;SDS011;19751;40.274;18.268;2022-09-19T17:52:54;3.60;;;2.25;;
33403;SDS011;19751;40.274;18.268;2022-09-19T17:55:20;4.57;;;2.15;;
33403;SDS011;19751;40.274;18.268;2022-09-19T17:57:46;5.40;;;2.60;;
33403;SDS011;19751;40.274;18.268;2022-09-19T18:00:13;3.90;;;2.25;;
33403;SDS011;19751;40.274;18.268;2022-09-19T18:02:39;4.13;;;2.33;;
33403;SDS011;19751;40.274;18.268;2022-09-19T18:05:24;6.30;;;2.55;;
33403;SDS011;19751;40.274;18.268;2022-09-19T18:07:51;4.95;;;2.30;;
33403;SDS011;19751;40.274;18.268;2022-09-19T18:10:23;5.38;;;2.63;;
33403;SDS011;19751;40.274;18.268;2022-09-19T18:12:51;11.85;;;6.15;;
33403;SDS011;19751;40.274;18.268;2022-09-19T18:15:17;18.90;;;9.80;;
33403;SDS011;19751;40.274;18.268;2022-09-19T18:17:43;25.48;;;12.95;;
33403;SDS011;19751;40.274;18.268;2022-09-19T18:20:11;39.92;;;18.17;;
33403;SDS011;19751;40.274;18.268;2022-09-19T18:22:36;60.22;;;26.70;;
33403;SDS011;19751;40.274;18.268;2022-09-19T18:25:02;62.10;;;28.15;;
33403;SDS011;19751;40.274;18.268;2022-09-19T18:27:33;57.53;;;22.13;;
33403;SDS011;19751;40.274;18.268;2022-09-19T18:29:59;35.95;;;13.43;;